Time;durP1;ratioP1;P1;durP2;ratioP2;P2;SDS_P1;SDS_P2;PMS_P1;PMS_P2;Temp;Humidity;BMP_temperature;BMP_pressure;BME280_temperature;BME280_humidity;BME280_pressure;Samples;Min_cycle;Max_cycle;Signal;HPM_P1;HPM_P2
2021/10/12 00:00:55;;;;;;;12.57;11.27;;;;;;;;;;6216017;23;20191;-81
2021/10/12 00:03:40;;;;;;;12.00;10.80;;;;;;;;;;6216022;23;20262;-81
2021/10/12 00:06:27;;;;;;;12.20;10.80;;;;;;;;;;6216078;23;20210;-82
2021/10/12 00:09:13;;;;;;;11.60;10.37;;;;;;;;;;6215553;23;20667;-82
2021/10/12 00:11:59;;;;;;;13.80;11.17;;;;;;;;;;6216128;23;20206;-81
2021/10/12 00:14:44;;;;;;;12.80;10.77;;;;;;;;;;6215806;23;20314;-82
2021/10/12 00:17:29;;;;;;;14.30;11.17;;;;;;;;;;6215870;23;20171;-81
2021/10/12 00:20:14;;;;;;;13.90;12.10;;;;;;;;;;6215764;23;20188;-81
2021/10/12 00:22:59;;;;;;;14.23;10.93;;;;;;;;;;6215922;23;20587;-81
2021/10/12 00:25:46;;;;;;;15.13;11.57;;;;;;;;;;6216059;23;20171;-81
2021/10/12 00:28:33;;;;;;;13.23;11.10;;;;;;;;;;6215549;23;20250;-81
2021/10/12 00:31:19;;;;;;;12.57;11.27;;;;;;;;;;6216101;23;20287;-81
2021/10/12 00:34:05;;;;;;;12.73;10.37;;;;;;;;;;6215892;23;20244;-81
2021/10/12 00:36:50;;;;;;;13.53;10.70;;;;;;;;;;6215839;23;20210;-81
2021/10/12 00:39:35;;;;;;;13.80;11.23;;;;;;;;;;6215965;23;20563;-81
2021/10/12 00:42:22;;;;;;;12.37;10.80;;;;;;;;;;6215695;23;20524;-81
2021/10/12 00:45:09;;;;;;;12.30;10.90;;;;;;;;;;6215724;23;20500;-81
2021/10/12 00:47:55;;;;;;;12.37;10.97;;;;;;;;;;6215321;23;20183;-81
2021/10/12 00:50:40;;;;;;;12.10;10.90;;;;;;;;;;6215508;23;20211;-81
2021/10/12 00:53:25;;;;;;;12.10;10.80;;;;;;;;;;6215874;23;20182;-81
2021/10/12 00:56:11;;;;;;;11.43;10.33;;;;;;;;;;6215444;23;20183;-81
2021/10/12 00:58:58;;;;;;;11.70;10.50;;;;;;;;;;6215530;23;20206;-82
2021/10/12 01:01:43;;;;;;;11.80;10.60;;;;;;;;;;6215407;23;20291;-81
2021/10/12 01:04:28;;;;;;;11.97;10.77;;;;;;;;;;6215469;23;20214;-81
2021/10/12 01:07:13;;;;;;;12.87;11.50;;;;;;;;;;6215385;23;20677;-81
2021/10/12 01:10:00;;;;;;;12.23;10.70;;;;;;;;;;6215697;23;20170;-81
2021/10/12 01:12:46;;;;;;;12.03;10.83;;;;;;;;;;6215210;23;20711;-81
2021/10/12 01:15:33;;;;;;;15.90;10.93;;;;;;;;;;6215035;23;20595;-81
2021/10/12 01:18:18;;;;;;;12.90;9.80;;;;;;;;;;6215143;23;20249;-81
2021/10/12 01:21:05;;;;;;;13.30;10.60;;;;;;;;;;6214632;23;20187;-81
2021/10/12 01:23:50;;;;;;;10.27;9.23;;;;;;;;;;6215325;23;20663;-80
2021/10/12 01:26:35;;;;;;;11.17;9.93;;;;;;;;;;6215119;23;20170;-80
2021/10/12 01:29:21;;;;;;;11.37;9.70;;;;;;;;;;6214926;23;20183;-81
2021/10/12 01:32:09;;;;;;;12.60;9.93;;;;;;;;;;6215348;23;20171;-81
2021/10/12 01:34:59;;;;;;;10.80;9.43;;;;;;;;;;6215029;23;20242;-81
2021/10/12 01:37:45;;;;;;;10.63;9.30;;;;;;;;;;6215126;23;20183;-81
2021/10/12 01:40:30;;;;;;;14.07;9.93;;;;;;;;;;6215058;23;20207;-81
2021/10/12 01:43:17;;;;;;;10.90;9.63;;;;;;;;;;6214946;23;20214;-80
2021/10/12 01:46:06;;;;;;;11.50;9.13;;;;;;;;;;6215247;23;20210;-81
2021/10/12 01:48:51;;;;;;;11.87;9.43;;;;;;;;;;6214746;23;20210;-80
2021/10/12 01:51:36;;;;;;;10.77;9.03;;;;;;;;;;6214801;23;20206;-80
2021/10/12 01:54:23;;;;;;;11.70;9.13;;;;;;;;;;6214994;23;20616;-81
2021/10/12 01:57:09;;;;;;;10.40;8.43;;;;;;;;;;6214782;23;20254;-82
2021/10/12 01:59:55;;;;;;;9.20;8.27;;;;;;;;;;6214685;23;20190;-80
2021/10/12 02:02:40;;;;;;;9.47;8.47;;;;;;;;;;6214900;23;20659;-81
2021/10/12 02:05:26;;;;;;;11.57;8.70;;;;;;;;;;6214890;23;20186;-81
2021/10/12 02:08:11;;;;;;;9.93;8.90;;;;;;;;;;6214764;23;20530;-81
2021/10/12 02:10:57;;;;;;;13.70;10.03;;;;;;;;;;6214969;23;20163;-81
2021/10/12 02:13:45;;;;;;;13.67;9.47;;;;;;;;;;6214607;23;20538;-81
2021/10/12 02:16:30;;;;;;;11.80;9.03;;;;;;;;;;6214438;23;20690;-80
2021/10/12 02:19:15;;;;;;;10.80;9.03;;;;;;;;;;6214690;23;20166;-80
2021/10/12 02:22:00;;;;;;;10.70;9.47;;;;;;;;;;6214822;23;20190;-81
2021/10/12 02:24:45;;;;;;;12.40;8.43;;;;;;;;;;6214762;23;20186;-80
2021/10/12 02:27:33;;;;;;;9.77;8.77;;;;;;;;;;6214641;23;20210;-80
2021/10/12 02:30:18;;;;;;;9.83;8.57;;;;;;;;;;6214843;23;20167;-80
2021/10/12 02:33:04;;;;;;;12.03;8.43;;;;;;;;;;6214795;23;20494;-81
2021/10/12 02:35:49;;;;;;;10.93;8.27;;;;;;;;;;6214280;23;20190;-81
2021/10/12 02:38:34;;;;;;;8.83;7.97;;;;;;;;;;6214453;23;20197;-80
2021/10/12 02:41:19;;;;;;;12.17;8.27;;;;;;;;;;6214444;23;20229;-82
2021/10/12 02:44:08;;;;;;;9.70;8.60;;;;;;;;;;6214623;23;20210;-81
2021/10/12 02:46:53;;;;;;;9.63;8.60;;;;;;;;;;6214556;23;20183;-81
2021/10/12 02:49:38;;;;;;;8.50;7.70;;;;;;;;;;6214295;23;20206;-80
2021/10/12 02:52:23;;;;;;;8.53;7.63;;;;;;;;;;6214433;23;20534;-80
2021/10/12 02:55:09;;;;;;;8.17;7.37;;;;;;;;;;6214708;23;20170;-81
2021/10/12 02:57:55;;;;;;;10.10;8.33;;;;;;;;;;6214384;23;20171;-81
2021/10/12 03:00:44;;;;;;;10.17;8.70;;;;;;;;;;6214493;23;20723;-80
2021/10/12 03:03:31;;;;;;;9.93;8.47;;;;;;;;;;6214690;23;20688;-80
2021/10/12 03:06:18;;;;;;;10.40;8.20;;;;;;;;;;6214600;23;20167;-80
2021/10/12 03:09:04;;;;;;;9.73;7.60;;;;;;;;;;6214379;23;20167;-81
2021/10/12 03:11:49;;;;;;;10.67;8.70;;;;;;;;;;6214386;23;20506;-81
2021/10/12 03:14:34;;;;;;;10.17;7.83;;;;;;;;;;6214321;23;20167;-81
2021/10/12 03:17:20;;;;;;;9.90;8.07;;;;;;;;;;6214758;23;20171;-81
2021/10/12 03:20:07;;;;;;;9.03;8.23;;;;;;;;;;6214628;23;20504;-80
2021/10/12 03:22:53;;;;;;;9.70;8.13;;;;;;;;;;6214212;23;20493;-81
2021/10/12 03:25:38;;;;;;;9.73;7.87;;;;;;;;;;6214210;23;20244;-81
2021/10/12 03:28:25;;;;;;;10.43;7.70;;;;;;;;;;6214361;23;20251;-80
2021/10/12 03:31:11;;;;;;;9.00;7.93;;;;;;;;;;6214337;23;20489;-82
2021/10/12 03:33:57;;;;;;;8.93;8.13;;;;;;;;;;6214448;23;20216;-81
2021/10/12 03:36:42;;;;;;;11.33;8.40;;;;;;;;;;6214674;23;20246;-81
2021/10/12 03:39:28;;;;;;;10.67;8.23;;;;;;;;;;6214528;23;20171;-81
2021/10/12 03:42:13;;;;;;;9.30;8.00;;;;;;;;;;6214010;23;20670;-81
2021/10/12 03:44:58;;;;;;;9.17;8.27;;;;;;;;;;6215706;23;20214;-81
2021/10/12 03:47:48;;;;;;;11.80;8.10;;;;;;;;;;6215924;23;20183;-81
2021/10/12 03:50:35;;;;;;;13.30;7.57;;;;;;;;;;6193261;23;20246;-81
2021/10/12 03:53:20;;;;;;;11.40;7.90;;;;;;;;;;6216002;23;20263;-81
2021/10/12 03:56:05;;;;;;;8.90;8.00;;;;;;;;;;6215773;23;20170;-80
2021/10/12 03:58:50;;;;;;;12.23;8.03;;;;;;;;;;6215541;23;20634;-81
2021/10/12 04:01:35;;;;;;;12.03;7.80;;;;;;;;;;6215741;23;20234;-81
2021/10/12 04:04:20;;;;;;;9.90;8.60;;;;;;;;;;6215439;23;20237;-81
2021/10/12 04:07:07;;;;;;;9.50;8.20;;;;;;;;;;6216305;23;20183;-80
2021/10/12 04:09:52;;;;;;;13.50;9.30;;;;;;;;;;6215746;23;20241;-82
2021/10/12 04:12:37;;;;;;;10.47;7.77;;;;;;;;;;6215952;23;20203;-82
2021/10/12 04:15:22;;;;;;;10.53;8.03;;;;;;;;;;6216236;23;20214;-81
2021/10/12 04:18:10;;;;;;;11.40;8.67;;;;;;;;;;6216038;23;20647;-81
2021/10/12 04:20:55;;;;;;;10.30;8.37;;;;;;;;;;6215396;23;20195;-81
2021/10/12 04:23:41;;;;;;;12.67;9.30;;;;;;;;;;6215387;23;20175;-81
2021/10/12 04:26:27;;;;;;;10.27;9.10;;;;;;;;;;6215569;23;20214;-81
2021/10/12 04:29:14;;;;;;;9.80;8.87;;;;;;;;;;6215485;23;20171;-79
2021/10/12 04:32:00;;;;;;;13.10;10.60;;;;;;;;;;6215513;23;20541;-80
2021/10/12 04:34:45;;;;;;;12.37;11.07;;;;;;;;;;6215609;23;20167;-82
2021/10/12 04:37:30;;;;;;;11.93;10.50;;;;;;;;;;6215598;23;20166;-82
2021/10/12 04:40:18;;;;;;;10.93;9.87;;;;;;;;;;6215766;23;20167;-85
2021/10/12 04:43:06;;;;;;;12.83;8.87;;;;;;;;;;6215806;23;20163;-84
2021/10/12 04:45:51;;;;;;;12.00;8.70;;;;;;;;;;6215708;23;20278;-81
2021/10/12 04:48:36;;;;;;;10.43;8.53;;;;;;;;;;6215612;23;20337;-85
2021/10/12 04:51:22;;;;;;;9.17;8.27;;;;;;;;;;6215020;23;20687;-84
2021/10/12 04:54:10;;;;;;;10.37;8.93;;;;;;;;;;6215063;23;20167;-81
2021/10/12 04:56:56;;;;;;;9.90;8.57;;;;;;;;;;6214865;23;20218;-81
2021/10/12 04:59:44;;;;;;;9.60;8.60;;;;;;;;;;6214627;23;20248;-80
2021/10/12 05:02:29;;;;;;;11.30;8.83;;;;;;;;;;6215127;23;20647;-82
2021/10/12 05:05:14;;;;;;;9.53;8.63;;;;;;;;;;6215054;23;20632;-82
2021/10/12 05:08:00;;;;;;;11.47;8.10;;;;;;;;;;6215536;23;20539;-82
2021/10/12 05:10:46;;;;;;;9.47;8.57;;;;;;;;;;6215374;23;20212;-81
2021/10/12 05:13:33;;;;;;;9.40;8.37;;;;;;;;;;6215136;23;20182;-82
2021/10/12 05:16:19;;;;;;;10.47;8.00;;;;;;;;;;6215200;23;20685;-81
2021/10/12 05:19:05;;;;;;;9.97;8.20;;;;;;;;;;6192766;23;20612;-83
2021/10/12 05:21:50;;;;;;;9.90;7.90;;;;;;;;;;6214918;23;20353;-82
2021/10/12 05:24:35;;;;;;;9.90;8.20;;;;;;;;;;6215109;23;20175;-82
2021/10/12 05:27:20;;;;;;;12.10;8.40;;;;;;;;;;6214955;23;20647;-82
2021/10/12 05:30:08;;;;;;;9.07;7.57;;;;;;;;;;6214365;23;20484;-82
2021/10/12 05:32:53;;;;;;;10.60;7.90;;;;;;;;;;6214419;23;20242;-84
2021/10/12 05:35:38;;;;;;;9.50;7.97;;;;;;;;;;6215193;23;20500;-83
2021/10/12 05:38:23;;;;;;;8.53;6.63;;;;;;;;;;6214862;23;20170;-83
2021/10/12 05:41:09;;;;;;;10.00;7.90;;;;;;;;;;6214950;23;20163;-84
2021/10/12 05:43:54;;;;;;;9.17;6.70;;;;;;;;;;6214912;23;20243;-84
2021/10/12 05:46:41;;;;;;;15.67;7.07;;;;;;;;;;6214924;23;20524;-84
2021/10/12 05:49:29;;;;;;;11.50;7.60;;;;;;;;;;6214664;23;20666;-84
2021/10/12 05:52:18;;;;;;;12.83;7.60;;;;;;;;;;6214840;23;20532;-83
2021/10/12 05:55:08;;;;;;;10.23;8.10;;;;;;;;;;6215061;23;20170;-84
2021/10/12 05:58:06;;;;;;;9.70;7.20;;;;;;;;;;6214961;23;20620;-84
2021/10/12 06:00:51;;;;;;;7.87;6.37;;;;;;;;;;6214684;23;20890;-84
2021/10/12 06:03:38;;;;;;;8.90;7.43;;;;;;;;;;6215065;23;20186;-84
2021/10/12 06:06:24;;;;;;;10.40;6.67;;;;;;;;;;6214580;23;20254;-83
2021/10/12 06:09:10;;;;;;;8.97;6.57;;;;;;;;;;6214898;23;20244;-84
2021/10/12 06:11:56;;;;;;;9.33;7.27;;;;;;;;;;6214639;23;20291;-84
2021/10/12 06:14:43;;;;;;;9.77;7.10;;;;;;;;;;6214685;23;20488;-84
2021/10/12 06:17:29;;;;;;;8.00;6.60;;;;;;;;;;6214579;23;20682;-84
2021/10/12 06:20:16;;;;;;;9.63;6.97;;;;;;;;;;6214962;23;20167;-84
2021/10/12 06:23:01;;;;;;;10.77;6.73;;;;;;;;;;6214571;23;20238;-84
2021/10/12 06:25:46;;;;;;;14.13;8.10;;;;;;;;;;6214671;23;20167;-84
2021/10/12 06:28:32;;;;;;;11.00;6.87;;;;;;;;;;6214741;23;20170;-84
2021/10/12 06:31:17;;;;;;;12.63;7.10;;;;;;;;;;6214750;23;20171;-84
2021/10/12 06:34:02;;;;;;;10.90;7.00;;;;;;;;;;6214411;23;20167;-84
2021/10/12 06:36:51;;;;;;;9.87;6.70;;;;;;;;;;6214964;23;20278;-84
2021/10/12 06:39:39;;;;;;;10.53;7.00;;;;;;;;;;6214175;23;20242;-84
2021/10/12 06:42:24;;;;;;;8.63;7.10;;;;;;;;;;6214528;23;20190;-83
2021/10/12 06:45:11;;;;;;;10.37;6.90;;;;;;;;;;6214833;23;20170;-84
2021/10/12 06:47:56;;;;;;;10.27;7.10;;;;;;;;;;6214448;23;20261;-84
2021/10/12 06:50:44;;;;;;;7.87;7.17;;;;;;;;;;6214273;23;20674;-84
2021/10/12 06:53:31;;;;;;;10.53;7.30;;;;;;;;;;6214559;23;20183;-84
2021/10/12 06:56:17;;;;;;;12.43;7.70;;;;;;;;;;6214449;23;20497;-84
2021/10/12 06:59:03;;;;;;;9.47;7.23;;;;;;;;;;6214301;23;20171;-84
2021/10/12 07:01:48;;;;;;;7.77;6.87;;;;;;;;;;6214254;23;20185;-84
2021/10/12 07:04:33;;;;;;;10.87;7.37;;;;;;;;;;6214640;23;20170;-84
2021/10/12 07:07:26;;;;;;;8.07;6.80;;;;;;;;;;6214359;23;20535;-85
2021/10/12 07:10:13;;;;;;;7.90;6.97;;;;;;;;;;6214616;23;20218;-84
2021/10/12 07:13:00;;;;;;;9.80;7.17;;;;;;;;;;6214696;23;20167;-83
2021/10/12 07:15:45;;;;;;;10.07;6.97;;;;;;;;;;6214826;23;20183;-83
2021/10/12 07:18:30;;;;;;;11.73;7.33;;;;;;;;;;6214727;23;20490;-83
2021/10/12 07:21:16;;;;;;;11.30;7.10;;;;;;;;;;6216696;23;20205;-83
2021/10/12 07:24:04;;;;;;;12.77;7.60;;;;;;;;;;6216454;23;20195;-84
2021/10/12 07:26:51;;;;;;;11.40;8.03;;;;;;;;;;6216710;23;20616;-83
2021/10/12 07:29:37;;;;;;;14.03;7.77;;;;;;;;;;6216474;23;20166;-83
2021/10/12 07:32:24;;;;;;;9.70;7.17;;;;;;;;;;6216433;23;20756;-83
2021/10/12 07:35:12;;;;;;;9.03;6.67;;;;;;;;;;6216335;23;20246;-83
2021/10/12 07:37:57;;;;;;;8.43;7.63;;;;;;;;;;6216472;23;20171;-83
2021/10/12 07:40:43;;;;;;;8.30;7.50;;;;;;;;;;6216458;23;20168;-83
2021/10/12 07:43:31;;;;;;;9.97;7.80;;;;;;;;;;6193701;23;20226;-83
2021/10/12 07:46:16;;;;;;;8.63;7.43;;;;;;;;;;6216241;23;20491;-84
2021/10/12 07:49:02;;;;;;;11.83;7.97;;;;;;;;;;6216170;23;20536;-83
2021/10/12 07:51:47;;;;;;;12.00;7.90;;;;;;;;;;6193726;23;20241;-83
2021/10/12 07:54:39;;;;;;;14.50;8.00;;;;;;;;;;6215997;23;20166;-84
2021/10/12 07:57:25;;;;;;;10.70;7.27;;;;;;;;;;6216060;23;20167;-83
2021/10/12 08:00:12;;;;;;;10.70;7.37;;;;;;;;;;6215954;23;20169;-82
2021/10/12 08:02:58;;;;;;;11.43;7.50;;;;;;;;;;6216032;23;20190;-83
2021/10/12 08:05:45;;;;;;;11.57;7.60;;;;;;;;;;6216697;23;20166;-82
2021/10/12 08:08:31;;;;;;;8.63;7.33;;;;;;;;;;6216241;23;20171;-83
2021/10/12 08:11:17;;;;;;;8.30;6.93;;;;;;;;;;6215878;23;20171;-83
2021/10/12 08:14:06;;;;;;;8.30;6.93;;;;;;;;;;6215892;23;20241;-84
2021/10/12 08:16:53;;;;;;;9.23;7.00;;;;;;;;;;6216142;23;20171;-84
2021/10/12 08:19:38;;;;;;;9.20;7.33;;;;;;;;;;6215898;23;20170;-84
2021/10/12 08:22:23;;;;;;;7.90;7.10;;;;;;;;;;6216055;23;20190;-83
2021/10/12 08:25:08;;;;;;;12.77;7.30;;;;;;;;;;6215945;23;20167;-84
2021/10/12 08:27:53;;;;;;;13.40;7.87;;;;;;;;;;6215753;23;20493;-84
2021/10/12 08:30:38;;;;;;;8.97;7.10;;;;;;;;;;6215379;23;20210;-84
2021/10/12 08:33:25;;;;;;;8.27;6.87;;;;;;;;;;6215665;23;20295;-84
2021/10/12 08:36:11;;;;;;;17.13;9.97;;;;;;;;;;6215816;23;20162;-83
2021/10/12 08:38:57;;;;;;;26.20;11.97;;;;;;;;;;6215752;23;20632;-84
2021/10/12 08:41:44;;;;;;;20.97;10.27;;;;;;;;;;6215746;23;20493;-84
2021/10/12 08:44:29;;;;;;;44.87;16.13;;;;;;;;;;6215579;23;20709;-84
2021/10/12 08:47:14;;;;;;;24.97;8.10;;;;;;;;;;6215662;23;20217;-84
2021/10/12 08:50:03;;;;;;;8.57;6.30;;;;;;;;;;6215616;23;20280;-84
2021/10/12 08:52:49;;;;;;;12.57;6.50;;;;;;;;;;6215343;23;20257;-84
2021/10/12 08:55:34;;;;;;;7.97;6.10;;;;;;;;;;6215308;23;20249;-84
2021/10/12 08:58:19;;;;;;;10.87;6.10;;;;;;;;;;6215496;23;20628;-84
2021/10/12 09:01:05;;;;;;;14.83;7.57;;;;;;;;;;6215443;23;20250;-85
2021/10/12 09:03:58;;;;;;;10.47;6.13;;;;;;;;;;6215551;23;20190;-84
2021/10/12 09:06:51;;;;;;;9.77;6.17;;;;;;;;;;6214982;23;20234;-84
2021/10/12 09:09:37;;;;;;;8.30;5.40;;;;;;;;;;6215230;23;20171;-84
2021/10/12 09:12:37;;;;;;;9.00;5.33;;;;;;;;;;6215394;23;20167;-85
2021/10/12 09:15:22;;;;;;;11.43;6.70;;;;;;;;;;6215327;23;20226;-85
2021/10/12 09:18:08;;;;;;;9.63;6.40;;;;;;;;;;6215331;23;20163;-88
2021/10/12 09:20:53;;;;;;;7.03;5.80;;;;;;;;;;6214867;23;20167;-83
2021/10/12 09:23:42;;;;;;;8.23;5.23;;;;;;;;;;6214646;23;20261;-84
2021/10/12 09:26:28;;;;;;;7.77;5.73;;;;;;;;;;6214728;23;20186;-84
2021/10/12 09:29:17;;;;;;;5.70;5.17;;;;;;;;;;6214785;23;20214;-86
2021/10/12 09:32:02;;;;;;;8.17;5.07;;;;;;;;;;6214770;23;20252;-85
2021/10/12 09:35:01;;;;;;;8.23;5.43;;;;;;;;;;6214377;23;20243;-87
2021/10/12 09:38:00;;;;;;;10.47;6.37;;;;;;;;;;6214617;23;20170;-85
2021/10/12 09:40:47;;;;;;;11.17;6.17;;;;;;;;;;6214152;23;20484;-86
2021/10/12 09:43:35;;;;;;;8.83;5.70;;;;;;;;;;6213974;23;20191;-85
2021/10/12 09:46:28;;;;;;;10.00;5.30;;;;;;;;;;6214114;23;20170;-85
2021/10/12 09:49:15;;;;;;;9.07;5.50;;;;;;;;;;6214247;23;20214;-85
2021/10/12 09:52:01;;;;;;;5.97;4.50;;;;;;;;;;6214364;23;20166;-85
2021/10/12 09:54:48;;;;;;;10.63;4.53;;;;;;;;;;6214074;23;20207;-85
2021/10/12 09:57:36;;;;;;;7.83;4.83;;;;;;;;;;6214255;23;20241;-82
2021/10/12 10:00:21;;;;;;;5.93;4.43;;;;;;;;;;6214357;23;20167;-81
2021/10/12 10:03:06;;;;;;;6.47;4.83;;;;;;;;;;6214355;23;20234;-82
2021/10/12 10:05:52;;;;;;;9.63;5.33;;;;;;;;;;6214226;23;20167;-82
2021/10/12 10:08:39;;;;;;;7.17;4.57;;;;;;;;;;6214352;23;20171;-81
2021/10/12 10:11:26;;;;;;;8.77;4.60;;;;;;;;;;6214397;23;20170;-83
2021/10/12 10:14:13;;;;;;;10.37;4.23;;;;;;;;;;6214479;23;20247;-82
2021/10/12 10:16:59;;;;;;;6.57;4.10;;;;;;;;;;6214542;23;20171;-81
2021/10/12 10:19:45;;;;;;;8.23;4.97;;;;;;;;;;6214470;23;20617;-82
2021/10/12 10:22:39;;;;;;;9.20;3.97;;;;;;;;;;6214225;23;20171;-80
2021/10/12 10:25:26;;;;;;;4.17;3.77;;;;;;;;;;6214151;23;20206;-82
2021/10/12 10:28:22;;;;;;;6.33;4.37;;;;;;;;;;6214461;23;20171;-82
2021/10/12 10:31:08;;;;;;;5.83;4.17;;;;;;;;;;6214532;23;20171;-82
2021/10/12 10:33:53;;;;;;;5.30;3.57;;;;;;;;;;6214819;23;20502;-81
2021/10/12 10:36:38;;;;;;;6.93;3.63;;;;;;;;;;6214044;23;20167;-82
2021/10/12 10:39:35;;;;;;;6.00;4.13;;;;;;;;;;6214365;23;20171;-82
2021/10/12 10:42:40;;;;;;;7.17;4.13;;;;;;;;;;6213916;23;20171;-81
2021/10/12 10:45:41;;;;;;;4.97;3.30;;;;;;;;;;6214046;23;20171;-82
2021/10/12 10:48:39;;;;;;;5.00;3.67;;;;;;;;;;6213754;23;20210;-81
2021/10/12 10:51:24;;;;;;;8.70;3.90;;;;;;;;;;6213751;23;20215;-82
2021/10/12 10:54:09;;;;;;;4.40;3.40;;;;;;;;;;6215680;23;20215;-81
2021/10/12 10:57:07;;;;;;;4.67;2.93;;;;;;;;;;6215877;23;20619;-81
2021/10/12 11:00:07;;;;;;;6.07;3.17;;;;;;;;;;6216455;23;20171;-80
2021/10/12 11:02:54;;;;;;;5.27;3.10;;;;;;;;;;6216749;23;20170;-79
2021/10/12 11:05:43;;;;;;;4.33;2.90;;;;;;;;;;6216046;23;20477;-82
2021/10/12 11:08:29;;;;;;;5.27;3.27;;;;;;;;;;6216150;23;20167;-81
2021/10/12 11:11:14;;;;;;;4.40;2.90;;;;;;;;;;6216033;23;20170;-81
2021/10/12 11:14:00;;;;;;;4.80;2.97;;;;;;;;;;6216118;23;20163;-82
2021/10/12 11:16:45;;;;;;;3.20;2.90;;;;;;;;;;6215898;23;20170;-82
2021/10/12 11:19:30;;;;;;;3.03;2.73;;;;;;;;;;6216081;23;20245;-82
2021/10/12 11:22:17;;;;;;;3.07;2.63;;;;;;;;;;6215952;23;20179;-82
2021/10/12 11:25:02;;;;;;;7.33;3.10;;;;;;;;;;6215892;23;20230;-82
2021/10/12 11:27:47;;;;;;;7.90;3.30;;;;;;;;;;6215924;23;20676;-81
2021/10/12 11:30:33;;;;;;;3.50;2.57;;;;;;;;;;6216241;23;20202;-83
2021/10/12 11:33:28;;;;;;;5.93;3.10;;;;;;;;;;6216062;23;20166;-82
2021/10/12 11:36:14;;;;;;;4.77;2.93;;;;;;;;;;6216070;23;20186;-82
2021/10/12 11:39:01;;;;;;;7.10;3.30;;;;;;;;;;6215992;23;20171;-82
2021/10/12 11:41:47;;;;;;;7.33;3.33;;;;;;;;;;6216012;23;20247;-81
2021/10/12 11:44:32;;;;;;;5.47;3.10;;;;;;;;;;6215658;23;20194;-83
2021/10/12 11:47:18;;;;;;;3.53;3.20;;;;;;;;;;6215729;23;20170;-83
2021/10/12 11:50:08;;;;;;;5.10;3.37;;;;;;;;;;6215763;23;20571;-82
2021/10/12 11:53:02;;;;;;;6.67;3.27;;;;;;;;;;6216277;23;20170;-80
2021/10/12 11:55:49;;;;;;;3.67;3.10;;;;;;;;;;6215759;23;20244;-82
2021/10/12 11:58:34;;;;;;;5.27;3.70;;;;;;;;;;6215376;23;20206;-82
2021/10/12 12:01:27;;;;;;;4.23;3.30;;;;;;;;;;6215143;23;20167;-81
2021/10/12 12:04:27;;;;;;;6.20;3.50;;;;;;;;;;6214372;23;20194;-81
2021/10/12 12:07:12;;;;;;;4.00;3.60;;;;;;;;;;6214847;23;20268;-82
2021/10/12 12:09:57;;;;;;;7.43;3.57;;;;;;;;;;6214976;23;20175;-82
2021/10/12 12:12:45;;;;;;;5.80;3.87;;;;;;;;;;6214603;23;20171;-82
2021/10/12 12:15:30;;;;;;;7.97;4.37;;;;;;;;;;6215080;23;20248;-81
2021/10/12 12:18:15;;;;;;;6.83;4.40;;;;;;;;;;6214778;23;20187;-82
2021/10/12 12:21:01;;;;;;;10.33;4.30;;;;;;;;;;6215090;23;20174;-82
2021/10/12 12:23:47;;;;;;;6.07;4.23;;;;;;;;;;6214696;23;20670;-81
2021/10/12 12:26:33;;;;;;;7.40;4.40;;;;;;;;;;6214749;23;20214;-82
2021/10/12 12:29:20;;;;;;;5.13;3.80;;;;;;;;;;6214833;23;20584;-81
2021/10/12 12:32:12;;;;;;;5.40;4.00;;;;;;;;;;6214794;23;20168;-82
2021/10/12 12:34:58;;;;;;;14.80;3.90;;;;;;;;;;6215044;23;20183;-81
2021/10/12 12:37:43;;;;;;;5.23;3.43;;;;;;;;;;6214511;23;20493;-82
2021/10/12 12:40:29;;;;;;;6.30;3.83;;;;;;;;;;6214831;23;20595;-82
2021/10/12 12:43:18;;;;;;;5.53;3.67;;;;;;;;;;6214425;23;20163;-82
2021/10/12 12:46:08;;;;;;;5.67;3.80;;;;;;;;;;6214871;23;20275;-82
2021/10/12 12:49:07;;;;;;;7.37;3.80;;;;;;;;;;6214555;23;20207;-82
2021/10/12 12:51:52;;;;;;;8.80;3.83;;;;;;;;;;6214837;23;20174;-82
2021/10/12 12:54:43;;;;;;;7.87;4.07;;;;;;;;;;6214627;23;20160;-83
2021/10/12 12:57:28;;;;;;;5.70;3.70;;;;;;;;;;6214397;23;20525;-83
2021/10/12 13:00:14;;;;;;;6.80;3.23;;;;;;;;;;6215043;23;20230;-83
2021/10/12 13:03:01;;;;;;;6.30;3.50;;;;;;;;;;6214492;23;20624;-83
2021/10/12 13:05:46;;;;;;;5.13;3.47;;;;;;;;;;6214715;23;20194;-81
2021/10/12 13:08:31;;;;;;;6.00;3.80;;;;;;;;;;6214480;23;20182;-83
2021/10/12 13:11:21;;;;;;;7.17;3.50;;;;;;;;;;6214969;23;20229;-83
2021/10/12 13:14:06;;;;;;;7.60;3.17;;;;;;;;;;6214918;23;20623;-83
2021/10/12 13:16:51;;;;;;;5.10;3.20;;;;;;;;;;6214121;23;20174;-83
2021/10/12 13:19:38;;;;;;;7.40;3.70;;;;;;;;;;6214647;23;20174;-84
2021/10/12 13:22:23;;;;;;;6.80;3.90;;;;;;;;;;6214024;23;20241;-83
2021/10/12 13:25:11;;;;;;;7.63;4.17;;;;;;;;;;6214712;23;20277;-83
2021/10/12 13:27:56;;;;;;;7.60;3.93;;;;;;;;;;6214808;23;20403;-83
2021/10/12 13:30:42;;;;;;;7.67;3.87;;;;;;;;;;6214554;23;20167;-83
2021/10/12 13:33:28;;;;;;;5.00;3.90;;;;;;;;;;6214206;23;20166;-83
2021/10/12 13:36:22;;;;;;;7.40;4.10;;;;;;;;;;6215106;23;20171;-81
2021/10/12 13:39:07;;;;;;;8.77;4.20;;;;;;;;;;6215359;23;20573;-83
2021/10/12 13:41:53;;;;;;;8.17;4.27;;;;;;;;;;6215209;23;20171;-82
2021/10/12 13:44:39;;;;;;;8.43;4.73;;;;;;;;;;6214624;23;20186;-83
2021/10/12 13:47:24;;;;;;;5.70;4.30;;;;;;;;;;6214803;23;20186;-81
2021/10/12 13:50:09;;;;;;;6.80;4.40;;;;;;;;;;6214598;23;20265;-81
2021/10/12 13:52:58;;;;;;;6.50;4.27;;;;;;;;;;6214647;23;20167;-82
2021/10/12 13:55:43;;;;;;;6.33;4.20;;;;;;;;;;6214426;23;20163;-82
2021/10/12 13:58:28;;;;;;;5.03;4.50;;;;;;;;;;6214295;23;20540;-82
2021/10/12 14:01:13;;;;;;;7.60;4.27;;;;;;;;;;6214545;23;20257;-82
2021/10/12 14:03:58;;;;;;;11.83;4.73;;;;;;;;;;6214701;23;20218;-83
2021/10/12 14:06:43;;;;;;;9.10;4.50;;;;;;;;;;6214810;23;20167;-81
2021/10/12 14:09:30;;;;;;;9.57;4.77;;;;;;;;;;6214545;23;20481;-80
2021/10/12 14:12:15;;;;;;;10.57;4.97;;;;;;;;;;6214644;23;20646;-82
2021/10/12 14:15:01;;;;;;;11.13;5.10;;;;;;;;;;6214945;23;20298;-82
2021/10/12 14:17:46;;;;;;;9.73;5.23;;;;;;;;;;6214745;23;20612;-80
2021/10/12 14:20:31;;;;;;;10.63;4.90;;;;;;;;;;6214487;23;20249;-81
2021/10/12 14:23:17;;;;;;;5.97;4.87;;;;;;;;;;6214814;23;20548;-81
2021/10/12 14:26:04;;;;;;;5.37;4.47;;;;;;;;;;6214542;23;20191;-82
2021/10/12 14:28:50;;;;;;;10.13;5.00;;;;;;;;;;6214159;23;20171;-82
2021/10/12 14:31:35;;;;;;;7.13;4.73;;;;;;;;;;6214599;23;20203;-83
2021/10/12 14:34:20;;;;;;;8.80;4.57;;;;;;;;;;6214942;23;20252;-84
2021/10/12 14:37:06;;;;;;;9.70;4.57;;;;;;;;;;6214935;23;20175;-84
2021/10/12 14:39:52;;;;;;;12.20;4.97;;;;;;;;;;6214597;23;20175;-84
2021/10/12 14:42:39;;;;;;;8.80;4.50;;;;;;;;;;6215079;23;20556;-84
2021/10/12 14:45:25;;;;;;;6.43;4.80;;;;;;;;;;6214615;23;20246;-86
2021/10/12 14:48:10;;;;;;;5.53;4.00;;;;;;;;;;6214155;23;20186;-84
2021/10/12 14:50:56;;;;;;;8.17;3.60;;;;;;;;;;6214930;23;20222;-84
2021/10/12 14:53:42;;;;;;;6.03;3.43;;;;;;;;;;6214848;23;20175;-86
2021/10/12 14:56:27;;;;;;;8.97;3.70;;;;;;;;;;6214118;23;20171;-80
2021/10/12 14:59:13;;;;;;;5.73;3.07;;;;;;;;;;6214056;23;20298;-83
2021/10/12 15:01:58;;;;;;;8.37;3.37;;;;;;;;;;6214397;23;20245;-85
2021/10/12 15:04:44;;;;;;;7.60;2.90;;;;;;;;;;6213569;23;20234;-85
2021/10/12 15:07:29;;;;;;;9.63;3.00;;;;;;;;;;6213993;23;20732;-85
2021/10/12 15:10:15;;;;;;;6.57;3.30;;;;;;;;;;6213865;23;20512;-85
2021/10/12 15:13:00;;;;;;;5.03;3.27;;;;;;;;;;6213923;23;20295;-85
2021/10/12 15:15:46;;;;;;;4.87;3.10;;;;;;;;;;6213503;23;20206;-83
2021/10/12 15:18:31;;;;;;;3.27;2.73;;;;;;;;;;6213687;23;20175;-84
2021/10/12 15:21:16;;;;;;;9.13;3.27;;;;;;;;;;6213645;23;20591;-85
2021/10/12 15:24:01;;;;;;;5.93;2.83;;;;;;;;;;6213083;23;20170;-84
2021/10/12 15:26:46;;;;;;;5.83;3.07;;;;;;;;;;6213021;23;20186;-85
2021/10/12 15:29:32;;;;;;;7.03;3.53;;;;;;;;;;6214257;23;20182;-83
2021/10/12 15:32:18;;;;;;;12.73;3.83;;;;;;;;;;6214018;23;20492;-86
2021/10/12 15:35:03;;;;;;;7.23;3.10;;;;;;;;;;6214009;23;20219;-86
2021/10/12 15:37:49;;;;;;;4.77;3.40;;;;;;;;;;6214032;23;20218;-86
2021/10/12 15:40:34;;;;;;;3.87;3.00;;;;;;;;;;6214945;23;20240;-86
2021/10/12 15:43:19;;;;;;;5.47;3.00;;;;;;;;;;6215771;23;20175;-86
2021/10/12 15:46:04;;;;;;;6.90;3.37;;;;;;;;;;6215728;23;20190;-86
2021/10/12 15:48:51;;;;;;;7.03;3.43;;;;;;;;;;6215420;23;20206;-86
2021/10/12 15:51:37;;;;;;;4.73;2.90;;;;;;;;;;6215538;23;20202;-86
2021/10/12 15:54:22;;;;;;;6.10;2.93;;;;;;;;;;6215599;23;20616;-84
2021/10/12 15:57:08;;;;;;;3.87;2.80;;;;;;;;;;6215860;23;20163;-86
2021/10/12 15:59:53;;;;;;;5.97;3.27;;;;;;;;;;6215567;23;20556;-86
2021/10/12 16:02:38;;;;;;;4.47;3.40;;;;;;;;;;6215735;23;20175;-83
2021/10/12 16:05:24;;;;;;;3.60;2.97;;;;;;;;;;6215132;23;20218;-86
2021/10/12 16:08:09;;;;;;;5.47;3.20;;;;;;;;;;6215944;23;20467;-84
2021/10/12 16:10:55;;;;;;;4.23;3.13;;;;;;;;;;6215134;23;20206;-87
2021/10/12 16:13:40;;;;;;;7.20;3.40;;;;;;;;;;6215138;23;20492;-86
2021/10/12 16:22:26;;;;;;;3.97;3.30;;;;;;;;;;6214367;23;20182;-86
2021/10/12 16:25:11;;;;;;;5.07;3.60;;;;;;;;;;6214663;23;20171;-86
2021/10/12 16:27:56;;;;;;;7.33;3.77;;;;;;;;;;6214831;23;20772;-87
2021/10/12 16:30:41;;;;;;;7.47;4.30;;;;;;;;;;6214863;23;20170;-87
2021/10/12 16:33:26;;;;;;;8.57;4.40;;;;;;;;;;6215123;23;20282;-88
2021/10/12 16:36:11;;;;;;;6.23;5.00;;;;;;;;;;6214659;23;20204;-87